createdAt,value
2022-08-23T00:01:24.398Z,10.77
2022-08-23T00:04:14.611Z,7.82
2022-08-23T00:07:07.347Z,9.23
2022-08-23T00:09:53.185Z,8.95
2022-08-23T00:12:40.147Z,8.70
2022-08-23T00:15:26.353Z,8.50
2022-08-23T00:18:14.424Z,10.93
2022-08-23T00:21:00.541Z,8.50
2022-08-23T00:23:46.234Z,8.90
2022-08-23T00:27:02.355Z,10.23
2022-08-23T00:29:54.241Z,10.43
2022-08-23T00:32:41.484Z,10.90
2022-08-23T00:35:27.930Z,10.77
2022-08-23T00:38:32.438Z,12.10
2022-08-23T00:41:19.735Z,11.52
2022-08-23T00:44:24.543Z,12.30
2022-08-23T00:47:30.736Z,13.25
2022-08-23T00:50:23.453Z,11.70
2022-08-23T00:53:26.138Z,12.77
2022-08-23T00:56:13.785Z,15.50
2022-08-23T00:59:00.285Z,11.52
2022-08-23T01:01:46.108Z,12.75
2022-08-23T01:04:37.137Z,12.25
2022-08-23T01:07:48.718Z,13.15
2022-08-23T01:10:44.644Z,12.13
2022-08-23T01:14:03.857Z,12.00
2022-08-23T01:16:54.485Z,14.73
2022-08-23T01:19:51.901Z,14.10
2022-08-23T01:22:43.421Z,13.13
2022-08-23T01:25:31.868Z,15.75
2022-08-23T01:28:18.338Z,12.30
2022-08-23T01:31:04.189Z,12.68
2022-08-23T01:33:59.662Z,20.33
2022-08-23T01:39:32.244Z,11.10
2022-08-23T01:42:18.928Z,16.20
2022-08-23T01:45:05.886Z,14.82
2022-08-23T01:47:52.607Z,14.25
2022-08-23T01:50:39.172Z,12.85
2022-08-23T01:53:25.361Z,16.55
2022-08-23T01:56:11.256Z,12.77
2022-08-23T01:58:58.660Z,16.90
2022-08-23T02:01:51.424Z,15.52
2022-08-23T02:04:37.715Z,19.02
2022-08-23T02:07:27.554Z,15.32
2022-08-23T02:10:15.562Z,12.55
2022-08-23T02:13:01.839Z,16.23
2022-08-23T02:15:51.591Z,12.20
2022-08-23T02:18:41.356Z,14.30
2022-08-23T02:21:27.437Z,12.52
2022-08-23T02:24:16.629Z,13.45
2022-08-23T02:27:05.157Z,12.60
2022-08-23T02:29:54.935Z,15.15
2022-08-23T02:32:42.348Z,14.27
2022-08-23T02:35:29.553Z,15.50
2022-08-23T02:38:17.344Z,13.00
2022-08-23T02:41:03.590Z,13.63
2022-08-23T02:43:53.710Z,12.52
2022-08-23T02:46:42.198Z,12.65
2022-08-23T02:49:29.566Z,16.15
2022-08-23T02:52:15.612Z,25.60
2022-08-23T02:55:02.415Z,13.13
2022-08-23T02:57:48.832Z,13.02
2022-08-23T03:01:57.327Z,17.27
2022-08-23T03:04:47.647Z,15.60
2022-08-23T03:07:33.492Z,15.30
2022-08-23T03:10:20.675Z,14.20
2022-08-23T03:13:12.828Z,14.55
2022-08-23T03:15:59.270Z,15.75
2022-08-23T03:18:45.994Z,13.73
2022-08-23T03:21:32.548Z,14.10
2022-08-23T03:24:19.289Z,15.32
2022-08-23T03:27:05.573Z,17.02
2022-08-23T03:29:51.624Z,18.95
2022-08-23T03:32:37.678Z,16.30
2022-08-23T03:35:23.642Z,16.25
2022-08-23T03:38:10.675Z,17.73
2022-08-23T03:40:57.240Z,16.10
2022-08-23T03:43:44.118Z,23.45
2022-08-23T03:46:34.033Z,20.85
2022-08-23T03:49:21.044Z,15.48
2022-08-23T03:52:12.647Z,20.85
2022-08-23T03:54:59.202Z,18.17
2022-08-23T03:57:49.130Z,22.77
2022-08-23T04:00:38.217Z,22.40
2022-08-23T04:03:24.589Z,22.60
2022-08-23T04:06:19.816Z,24.63
2022-08-23T04:09:06.908Z,18.52
2022-08-23T04:11:53.393Z,24.38
2022-08-23T04:14:40.788Z,19.27
2022-08-23T04:17:27.060Z,19.42
2022-08-23T04:20:13.455Z,25.17
2022-08-23T04:23:19.889Z,18.75
2022-08-23T04:26:11.707Z,18.60
2022-08-23T04:29:00.158Z,19.13
2022-08-23T04:31:46.841Z,19.00
2022-08-23T04:34:36.358Z,19.55
2022-08-23T04:37:23.457Z,20.65
2022-08-23T04:40:31.411Z,23.08
2022-08-23T04:43:18.638Z,22.52
2022-08-23T04:46:05.653Z,24.75
2022-08-23T04:48:54.353Z,24.20
2022-08-23T04:51:40.633Z,24.65
2022-08-23T04:54:27.067Z,25.75
2022-08-23T04:57:42.607Z,28.35
2022-08-23T05:00:30.835Z,24.35
2022-08-23T05:03:17.404Z,28.17
2022-08-23T05:06:05.202Z,27.95
2022-08-23T05:08:58.343Z,27.35
2022-08-23T05:11:44.565Z,21.80
2022-08-23T05:14:31.628Z,19.92
2022-08-23T05:17:20.592Z,27.80
2022-08-23T05:20:08.413Z,23.98
2022-08-23T05:22:55.537Z,22.20
2022-08-23T05:26:04.112Z,25.10
2022-08-23T05:28:58.760Z,20.67
2022-08-23T05:31:50.578Z,19.70
2022-08-23T05:34:39.177Z,20.30
2022-08-23T05:37:29.435Z,24.05
2022-08-23T05:40:15.710Z,31.75
2022-08-23T05:43:15.728Z,21.30
2022-08-23T05:46:12.192Z,22.90
2022-08-23T05:49:06.011Z,21.20
2022-08-23T05:51:52.221Z,21.92
2022-08-23T05:54:41.133Z,18.70
2022-08-23T05:57:47.544Z,17.50
2022-08-23T06:00:40.643Z,17.30
2022-08-23T06:03:29.347Z,18.08
2022-08-23T06:06:16.271Z,19.73
2022-08-23T06:09:04.047Z,17.80
2022-08-23T06:11:50.663Z,20.15
2022-08-23T06:14:38.648Z,20.70
2022-08-23T06:17:29.043Z,19.05
2022-08-23T06:20:18.208Z,15.63
2022-08-23T06:23:21.954Z,18.50
2022-08-23T06:26:33.723Z,17.77
2022-08-23T06:29:21.636Z,17.63
2022-08-23T06:32:16.950Z,17.27
2022-08-23T06:35:38.659Z,19.27
2022-08-23T06:38:51.014Z,14.32
2022-08-23T06:42:10.101Z,15.68
2022-08-23T06:45:05.492Z,14.88
2022-08-23T06:47:57.661Z,15.77
2022-08-23T06:50:43.743Z,16.50
2022-08-23T06:54:03.058Z,16.75
2022-08-23T06:57:08.239Z,16.38
2022-08-23T07:00:22.133Z,13.60
2022-08-23T07:03:27.367Z,14.30
2022-08-23T07:06:37.168Z,16.50
2022-08-23T07:09:23.680Z,15.02
2022-08-23T07:12:11.581Z,17.45
2022-08-23T07:15:00.604Z,19.13
2022-08-23T07:17:46.539Z,16.35
2022-08-23T07:20:32.583Z,19.27
2022-08-23T07:23:18.391Z,19.05
2022-08-23T07:26:08.503Z,15.57
2022-08-23T07:28:54.632Z,18.60
2022-08-23T07:31:47.025Z,20.73
2022-08-23T07:34:34.400Z,16.90
2022-08-23T07:37:21.045Z,17.95
2022-08-23T07:40:08.522Z,15.60
2022-08-23T07:42:57.893Z,15.80
2022-08-23T07:45:44.649Z,17.75
2022-08-23T07:48:52.501Z,15.30
2022-08-23T07:51:45.526Z,14.82
2022-08-23T07:54:32.001Z,15.80
2022-08-23T07:57:24.851Z,16.65
2022-08-23T08:00:36.984Z,17.98
2022-08-23T08:03:53.475Z,18.70
2022-08-23T08:07:00.189Z,15.32
2022-08-23T08:09:54.991Z,14.90
2022-08-23T08:12:44.239Z,17.52
2022-08-23T08:15:42.187Z,14.63
2022-08-23T08:18:32.433Z,14.60
2022-08-23T08:21:39.610Z,13.32
2022-08-23T08:24:46.482Z,12.88
2022-08-23T08:27:33.385Z,15.77
2022-08-23T08:30:22.049Z,16.27
2022-08-23T08:33:09.054Z,15.27
2022-08-23T08:35:57.758Z,13.45
2022-08-23T08:38:50.361Z,12.77
2022-08-23T08:41:44.279Z,11.68
2022-08-23T08:44:55.867Z,18.30
2022-08-23T08:48:04.053Z,16.42
2022-08-23T08:51:01.758Z,14.25
2022-08-23T08:53:49.036Z,12.98
2022-08-23T08:56:52.000Z,12.02
2022-08-23T09:00:13.803Z,10.70
2022-08-23T09:03:06.418Z,12.52
2022-08-23T09:06:00.671Z,14.23
2022-08-23T09:09:13.459Z,11.95
2022-08-23T09:12:19.067Z,15.73
2022-08-23T09:15:13.104Z,11.13
2022-08-23T09:18:13.673Z,13.23
2022-08-23T09:20:59.798Z,11.57
2022-08-23T09:23:47.902Z,10.55
2022-08-23T09:26:54.749Z,11.63
2022-08-23T09:29:59.232Z,12.05
2022-08-23T09:32:48.742Z,11.60
2022-08-23T09:35:34.840Z,12.98
2022-08-23T09:38:27.064Z,12.27
2022-08-23T09:41:24.011Z,9.37
2022-08-23T09:44:16.496Z,11.45
2022-08-23T09:47:12.283Z,20.20
2022-08-23T09:50:18.347Z,9.73
2022-08-23T09:53:10.966Z,11.65
2022-08-23T09:55:59.078Z,9.65
2022-08-23T09:58:47.166Z,8.32
2022-08-23T10:01:40.320Z,9.27
2022-08-23T10:04:37.537Z,12.98
2022-08-23T10:08:00.669Z,18.55
2022-08-23T10:13:43.219Z,9.73
2022-08-23T10:16:41.547Z,15.02
2022-08-23T10:19:47.884Z,12.70
2022-08-23T10:22:53.543Z,17.92
2022-08-23T10:25:54.923Z,12.57
2022-08-23T10:29:09.783Z,11.65
2022-08-23T10:32:40.905Z,12.70
2022-08-23T10:35:57.510Z,14.07
2022-08-23T10:38:47.140Z,13.65
2022-08-23T10:41:54.899Z,12.27
2022-08-23T10:44:51.025Z,11.43
2022-08-23T10:47:51.702Z,19.42
2022-08-23T10:50:55.797Z,14.85
2022-08-23T10:54:06.278Z,13.98
2022-08-23T10:56:53.018Z,12.43
2022-08-23T10:59:39.370Z,8.80
2022-08-23T11:02:56.283Z,13.75
2022-08-23T11:06:29.306Z,13.38
2022-08-23T11:09:19.194Z,14.27
2022-08-23T11:12:11.824Z,13.63
2022-08-23T11:15:05.479Z,12.75
2022-08-23T11:17:56.324Z,7.35
2022-08-23T11:20:49.551Z,10.45
2022-08-23T11:23:55.963Z,15.88
2022-08-23T11:26:45.443Z,13.18
2022-08-23T11:29:33.226Z,12.70
2022-08-23T11:32:41.296Z,8.18
2022-08-23T11:35:43.265Z,8.07
2022-08-23T11:38:50.021Z,7.93
2022-08-23T11:41:57.178Z,8.65
2022-08-23T11:44:49.164Z,8.52
2022-08-23T11:47:44.536Z,11.02
2022-08-23T11:50:57.726Z,6.50
2022-08-23T11:53:53.185Z,11.17
2022-08-23T11:57:00.462Z,6.25
2022-08-23T13:10:46.230Z,6.78
2022-08-23T13:13:33.023Z,5.90
2022-08-23T13:16:42.963Z,7.60
2022-08-23T13:19:31.164Z,4.72
2022-08-23T13:22:24.068Z,7.88
2022-08-23T13:25:32.164Z,4.73
2022-08-23T13:28:25.548Z,6.20
2022-08-23T13:31:11.457Z,7.65
2022-08-23T13:33:57.640Z,5.65
2022-08-23T13:36:44.423Z,9.75
2022-08-23T13:39:30.777Z,5.38
2022-08-23T13:42:51.158Z,7.00
2022-08-23T13:46:37.821Z,13.88
2022-08-23T13:49:29.336Z,5.68
2022-08-23T13:55:21.680Z,6.57
2022-08-23T13:58:10.763Z,7.53
2022-08-23T14:00:58.858Z,5.95
2022-08-23T14:03:46.800Z,13.82
2022-08-23T14:06:32.513Z,8.02
2022-08-23T14:09:20.471Z,7.43
2022-08-23T14:12:15.562Z,7.97
2022-08-23T14:15:03.879Z,5.35
2022-08-23T14:17:52.689Z,7.57
2022-08-23T14:20:46.470Z,4.97
2022-08-23T14:23:34.574Z,4.20
2022-08-23T14:26:21.928Z,8.40
2022-08-23T14:29:08.343Z,8.77
2022-08-23T14:32:02.289Z,8.43
2022-08-23T14:34:48.490Z,10.57
2022-08-23T14:40:40.894Z,7.65
2022-08-23T14:43:27.648Z,30.83
2022-08-23T14:46:13.725Z,17.48
2022-08-23T14:49:00.031Z,14.43
2022-08-23T14:51:47.492Z,9.50
2022-08-23T14:54:36.129Z,8.10
2022-08-23T14:57:22.012Z,6.43
2022-08-23T15:00:13.774Z,5.65
2022-08-23T15:03:00.220Z,8.70
2022-08-23T15:05:46.432Z,6.32
2022-08-23T15:08:33.434Z,8.43
2022-08-23T15:14:26.323Z,11.27
2022-08-23T15:17:12.074Z,16.17
2022-08-23T15:19:57.892Z,7.55
2022-08-23T15:22:44.640Z,8.13
2022-08-23T15:25:33.803Z,5.50
2022-08-23T15:28:21.064Z,7.00
2022-08-23T15:31:07.399Z,10.43
2022-08-23T15:33:53.477Z,5.65
2022-08-23T15:36:41.924Z,3.92
2022-08-23T15:39:28.123Z,4.95
2022-08-23T15:42:18.539Z,3.63
2022-08-23T15:45:09.227Z,4.05
2022-08-23T15:47:56.522Z,5.07
2022-08-23T15:50:45.360Z,3.90
2022-08-23T15:53:31.813Z,5.68
2022-08-23T15:56:28.207Z,3.20
2022-08-23T15:59:16.686Z,2.88
2022-08-23T16:02:03.803Z,3.42
2022-08-23T16:04:50.084Z,6.18
2022-08-23T16:07:37.128Z,6.93
2022-08-23T16:10:24.089Z,7.55
2022-08-23T16:13:10.793Z,8.52
2022-08-23T16:15:57.650Z,19.55
2022-08-23T16:18:44.195Z,12.75
2022-08-23T16:21:31.438Z,17.13
2022-08-23T16:24:17.218Z,6.22
2022-08-23T16:27:07.605Z,4.30
2022-08-23T16:29:53.559Z,8.77
2022-08-23T16:32:39.368Z,7.80
2022-08-23T16:35:25.378Z,4.90
2022-08-23T16:38:11.284Z,6.15
2022-08-23T16:40:57.413Z,8.18
2022-08-23T16:43:43.529Z,5.80
2022-08-23T16:46:29.482Z,4.97
2022-08-23T16:49:18.679Z,3.80
2022-08-23T16:52:04.715Z,7.65
2022-08-23T16:54:50.813Z,4.65
2022-08-23T16:57:37.090Z,4.75
2022-08-23T17:00:23.082Z,5.80
2022-08-23T17:03:09.950Z,5.60
2022-08-23T17:05:55.989Z,6.25
2022-08-23T17:08:45.141Z,6.47
2022-08-23T17:11:32.959Z,5.15
2022-08-23T17:14:19.962Z,6.28
2022-08-23T17:17:06.171Z,3.35
2022-08-23T17:19:52.366Z,3.85
2022-08-23T17:22:38.419Z,4.90
2022-08-23T17:25:24.982Z,26.50
2022-08-23T17:28:11.096Z,10.10
2022-08-23T17:30:56.918Z,5.05
2022-08-23T17:33:43.837Z,7.57
2022-08-23T17:37:06.920Z,7.75
2022-08-23T17:39:53.329Z,5.03
2022-08-23T17:42:39.426Z,6.32
2022-08-23T17:45:27.189Z,5.88
2022-08-23T17:48:14.509Z,4.68
2022-08-23T17:51:01.572Z,7.25
2022-08-23T17:53:47.529Z,3.88
2022-08-23T17:56:33.880Z,4.93
2022-08-23T17:59:20.363Z,4.43
2022-08-23T18:02:07.161Z,4.18
2022-08-23T18:04:53.040Z,4.90
2022-08-23T18:07:40.427Z,6.70
2022-08-23T18:10:26.967Z,6.25
2022-08-23T18:13:12.799Z,6.80
2022-08-23T18:15:58.790Z,4.63
2022-08-23T18:18:44.842Z,6.05
2022-08-23T18:21:30.791Z,3.42
2022-08-23T18:24:16.991Z,4.45
2022-08-23T18:27:23.565Z,7.18
2022-08-23T18:30:11.176Z,5.25
2022-08-23T18:32:59.595Z,8.13
2022-08-23T18:35:46.671Z,4.68
2022-08-23T18:38:32.567Z,9.23
2022-08-23T18:41:18.521Z,4.18
2022-08-23T18:44:05.948Z,29.52
2022-08-23T18:46:52.089Z,25.63
2022-08-23T18:49:38.902Z,22.77
2022-08-23T18:52:27.159Z,6.15
2022-08-23T18:55:17.822Z,7.13
2022-08-23T18:58:04.665Z,13.20
2022-08-23T19:00:51.010Z,12.75
2022-08-23T19:03:37.002Z,5.68
2022-08-23T19:06:23.624Z,5.00
2022-08-23T19:09:12.796Z,4.80
2022-08-23T19:12:00.886Z,4.95
2022-08-23T19:14:47.102Z,5.32
2022-08-23T19:17:33.285Z,5.28
2022-08-23T19:20:19.789Z,3.95
2022-08-23T19:23:06.114Z,5.75
2022-08-23T19:25:52.230Z,7.68
2022-08-23T19:28:39.820Z,4.60
2022-08-23T19:31:28.217Z,3.78
2022-08-23T19:34:18.883Z,4.97
2022-08-23T19:37:05.185Z,9.00
2022-08-23T19:39:56.684Z,7.28
2022-08-23T19:42:42.558Z,4.07
2022-08-23T19:45:32.179Z,5.07
2022-08-23T19:48:20.022Z,4.18
2022-08-23T19:51:12.458Z,3.70
2022-08-23T19:54:04.619Z,5.00
2022-08-23T19:56:57.591Z,3.95
2022-08-23T20:02:30.662Z,8.15
2022-08-23T20:05:17.706Z,4.93
2022-08-23T20:08:04.311Z,4.72
2022-08-23T20:10:50.219Z,7.53
2022-08-23T20:13:36.360Z,4.18
2022-08-23T20:16:24.019Z,6.15
2022-08-23T20:19:11.239Z,8.77
2022-08-23T20:22:19.421Z,5.88
2022-08-23T20:25:07.428Z,5.45
2022-08-23T20:27:53.865Z,8.38
2022-08-23T20:30:40.271Z,6.05
2022-08-23T20:33:26.157Z,8.35
2022-08-23T20:36:12.483Z,7.05
2022-08-23T20:39:00.191Z,6.47
2022-08-23T20:41:46.435Z,6.68
2022-08-23T20:44:33.382Z,8.93
2022-08-23T20:47:19.298Z,5.18
2022-08-23T20:50:06.181Z,6.45
2022-08-23T20:52:52.379Z,7.65
2022-08-23T20:55:41.680Z,8.25
2022-08-23T20:58:28.138Z,5.53
2022-08-23T21:01:14.512Z,8.02
2022-08-23T21:04:00.966Z,7.18
2022-08-23T21:06:49.960Z,6.50
2022-08-23T21:09:37.051Z,9.82
2022-08-23T21:12:22.998Z,6.32
2022-08-23T21:15:11.064Z,6.38
2022-08-23T21:17:57.129Z,6.10
2022-08-23T21:20:43.191Z,6.95
2022-08-23T21:23:29.308Z,5.55
2022-08-23T21:26:16.031Z,8.13
2022-08-23T21:29:02.315Z,7.93
2022-08-23T21:31:48.497Z,10.27
2022-08-23T21:34:34.677Z,5.82
2022-08-23T21:37:20.392Z,7.18
2022-08-23T21:40:06.974Z,6.45
2022-08-23T21:42:52.825Z,10.90
2022-08-23T21:45:39.586Z,6.53
2022-08-23T21:48:27.838Z,8.30
2022-08-23T21:51:13.813Z,6.50
2022-08-23T21:53:59.682Z,9.80
2022-08-23T21:56:46.274Z,11.32
2022-08-23T21:59:32.052Z,9.73
2022-08-23T22:02:19.239Z,5.95
2022-08-23T22:05:07.171Z,7.95
2022-08-23T22:07:53.569Z,8.13
2022-08-23T22:16:04.013Z,7.30
2022-08-23T22:46:23.351Z,6.93
2022-08-23T22:49:09.451Z,10.57
2022-08-23T22:51:57.462Z,8.82
2022-08-23T22:54:43.616Z,7.32
2022-08-23T22:57:30.678Z,7.30
2022-08-23T23:00:16.739Z,8.18
2022-08-23T23:03:02.709Z,9.20
2022-08-23T23:05:50.209Z,9.55
2022-08-23T23:08:37.063Z,8.85
2022-08-23T23:11:23.801Z,10.35
2022-08-23T23:14:10.550Z,10.57
2022-08-23T23:16:56.606Z,8.60
2022-08-23T23:20:04.049Z,7.45
2022-08-23T23:22:51.901Z,11.13
2022-08-23T23:25:38.115Z,8.35
2022-08-23T23:28:24.306Z,12.27
2022-08-23T23:31:10.048Z,10.27
2022-08-23T23:33:56.155Z,8.85
2022-08-23T23:36:41.996Z,8.05
2022-08-23T23:39:28.332Z,8.20
2022-08-23T23:42:14.282Z,10.00
2022-08-23T23:44:59.984Z,10.07
2022-08-23T23:47:46.373Z,8.48
2022-08-23T23:50:32.538Z,9.15
2022-08-23T23:53:21.695Z,7.95
2022-08-23T23:56:14.976Z,10.18
2022-08-23T23:59:00.771Z,8.77
